Current Weather

Stansted

Stansted, United Kingdom (EGSS)

Report from: Monday, July 22, 2024 11:20 AM BST
Current time: Monday, July 22, 2024 11:34 AM BST

Nearby weather – Weather history – Daily summaries
Weather forecast

Temperature19.0°C (66.2°F)
Dew point16.0°C (60.8°F)
Winds 10 kts (5.1 m/s, 11.5 mph) South-Southwest (200°)
Visibility6.2 mi. (10 km)
Clouds Ceiling: Broken clouds 1,400 ft. (427 m)
Overcast 1,900 ft. (579 m)
Altimeter29.94 in.Hg (1014 mB)
Relative humidity83 %
Density altitude694 ft. (211 m)
Remarks Fully automated report
Flight conditions Marginal Visual Meteorological Conditions
Raw dataEGSS 221020Z AUTO 20010KT 9999 BKN014 OVC019 19/16 Q1014
An error has occurred. This application may no longer respond until reloaded. Reload 🗙